sensor_id;sensor_type;location;lat;lon;timestamp;P1;durP1;ratioP1;P2;durP2;ratioP2
74799;SDS011;63326;45.088;7.658;2022-10-16T10:26:28;20.55;;;7.57;;
74799;SDS011;63326;45.088;7.658;2022-10-16T10:29:12;17.63;;;8.77;;
74799;SDS011;63326;45.088;7.658;2022-10-16T10:32:01;22.63;;;9.80;;
74799;SDS011;63326;45.088;7.658;2022-10-16T10:34:53;18.15;;;8.27;;
74799;SDS011;63326;45.088;7.658;2022-10-16T10:43:17;20.70;;;9.07;;
74799;SDS011;63326;45.088;7.658;2022-10-16T10:45:51;21.00;;;9.77;;
74799;SDS011;63326;45.088;7.658;2022-10-16T10:48:24;19.20;;;9.98;;
74799;SDS011;63326;45.088;7.658;2022-10-16T10:51:09;21.38;;;9.23;;
74799;SDS011;63326;45.088;7.658;2022-10-16T11:02:24;20.67;;;8.55;;
74799;SDS011;63326;45.088;7.658;2022-10-16T11:07:34;19.08;;;10.82;;
74799;SDS011;63326;45.088;7.658;2022-10-16T11:10:19;20.77;;;9.57;;
74799;SDS011;63326;45.088;7.658;2022-10-16T11:12:49;19.02;;;8.98;;
74799;SDS011;63326;45.088;7.658;2022-10-16T11:15:20;16.73;;;8.57;;
74799;SDS011;63326;45.088;7.658;2022-10-16T11:17:55;18.45;;;9.90;;
74799;SDS011;63326;45.088;7.658;2022-10-16T11:20:26;18.55;;;10.02;;
74799;SDS011;63326;45.088;7.658;2022-10-16T11:25:33;21.30;;;10.18;;
74799;SDS011;63326;45.088;7.658;2022-10-16T11:30:59;25.63;;;9.77;;
74799;SDS011;63326;45.088;7.658;2022-10-16T11:39:31;22.98;;;9.40;;
74799;SDS011;63326;45.088;7.658;2022-10-16T11:42:07;22.75;;;10.68;;
74799;SDS011;63326;45.088;7.658;2022-10-16T11:56:01;14.98;;;8.25;;
74799;SDS011;63326;45.088;7.658;2022-10-16T11:58:35;16.10;;;8.32;;
74799;SDS011;63326;45.088;7.658;2022-10-16T12:01:15;18.65;;;7.45;;
74799;SDS011;63326;45.088;7.658;2022-10-16T12:06:37;16.98;;;8.13;;
74799;SDS011;63326;45.088;7.658;2022-10-16T12:09:13;17.45;;;7.20;;
74799;SDS011;63326;45.088;7.658;2022-10-16T12:11:45;19.02;;;7.25;;
74799;SDS011;63326;45.088;7.658;2022-10-16T12:16:39;16.08;;;6.75;;
74799;SDS011;63326;45.088;7.658;2022-10-16T12:19:32;14.70;;;6.43;;
74799;SDS011;63326;45.088;7.658;2022-10-16T12:22:02;15.02;;;6.32;;
74799;SDS011;63326;45.088;7.658;2022-10-16T12:24:32;14.90;;;7.80;;
74799;SDS011;63326;45.088;7.658;2022-10-16T12:27:03;14.65;;;7.32;;
74799;SDS011;63326;45.088;7.658;2022-10-16T12:29:38;13.35;;;6.78;;
74799;SDS011;63326;45.088;7.658;2022-10-16T12:32:19;12.07;;;5.97;;
74799;SDS011;63326;45.088;7.658;2022-10-16T12:35:18;14.55;;;6.93;;
74799;SDS011;63326;45.088;7.658;2022-10-16T12:37:49;14.13;;;7.15;;
74799;SDS011;63326;45.088;7.658;2022-10-16T12:40:24;12.73;;;6.32;;
74799;SDS011;63326;45.088;7.658;2022-10-16T12:42:53;13.65;;;7.03;;
74799;SDS011;63326;45.088;7.658;2022-10-16T12:48:42;16.75;;;7.80;;
74799;SDS011;63326;45.088;7.658;2022-10-16T12:54:00;18.75;;;8.07;;
74799;SDS011;63326;45.088;7.658;2022-10-16T13:22:46;19.42;;;8.75;;
74799;SDS011;63326;45.088;7.658;2022-10-16T13:30:30;22.75;;;8.70;;
74799;SDS011;63326;45.088;7.658;2022-10-16T13:33:00;20.02;;;9.25;;
74799;SDS011;63326;45.088;7.658;2022-10-16T13:35:29;23.40;;;10.25;;
74799;SDS011;63326;45.088;7.658;2022-10-16T13:38:14;19.27;;;9.98;;
74799;SDS011;63326;45.088;7.658;2022-10-16T13:43:19;22.80;;;10.90;;
74799;SDS011;63326;45.088;7.658;2022-10-16T13:46:03;23.45;;;11.05;;
74799;SDS011;63326;45.088;7.658;2022-10-16T13:48:33;21.90;;;10.55;;
74799;SDS011;63326;45.088;7.658;2022-10-16T13:51:10;22.75;;;9.77;;
74799;SDS011;63326;45.088;7.658;2022-10-16T13:53:39;22.45;;;9.43;;
74799;SDS011;63326;45.088;7.658;2022-10-16T13:56:10;22.13;;;10.68;;
74799;SDS011;63326;45.088;7.658;2022-10-16T13:58:37;19.00;;;9.23;;
74799;SDS011;63326;45.088;7.658;2022-10-16T14:01:05;20.65;;;10.30;;
74799;SDS011;63326;45.088;7.658;2022-10-16T14:03:41;20.58;;;9.93;;
74799;SDS011;63326;45.088;7.658;2022-10-16T14:06:12;21.92;;;10.32;;
74799;SDS011;63326;45.088;7.658;2022-10-16T14:08:42;23.92;;;10.88;;
74799;SDS011;63326;45.088;7.658;2022-10-16T14:11:10;28.52;;;12.48;;
74799;SDS011;63326;45.088;7.658;2022-10-16T14:13:38;22.23;;;11.25;;
74799;SDS011;63326;45.088;7.658;2022-10-16T14:16:07;29.17;;;12.80;;
74799;SDS011;63326;45.088;7.658;2022-10-16T14:18:35;26.20;;;11.75;;
74799;SDS011;63326;45.088;7.658;2022-10-16T14:21:07;25.17;;;12.05;;
74799;SDS011;63326;45.088;7.658;2022-10-16T14:23:39;29.88;;;13.63;;
74799;SDS011;63326;45.088;7.658;2022-10-16T14:28:36;26.75;;;11.70;;
74799;SDS011;63326;45.088;7.658;2022-10-16T14:31:17;30.48;;;12.10;;
74799;SDS011;63326;45.088;7.658;2022-10-16T14:33:54;27.48;;;12.77;;
74799;SDS011;63326;45.088;7.658;2022-10-16T14:36:21;28.35;;;12.30;;
74799;SDS011;63326;45.088;7.658;2022-10-16T14:39:04;28.48;;;13.75;;
74799;SDS011;63326;45.088;7.658;2022-10-16T14:41:33;30.67;;;13.07;;
74799;SDS011;63326;45.088;7.658;2022-10-16T14:44:09;30.20;;;14.38;;
74799;SDS011;63326;45.088;7.658;2022-10-16T14:46:37;26.27;;;12.38;;
74799;SDS011;63326;45.088;7.658;2022-10-16T14:51:36;28.02;;;14.13;;
74799;SDS011;63326;45.088;7.658;2022-10-16T14:54:03;29.65;;;14.05;;
74799;SDS011;63326;45.088;7.658;2022-10-16T14:56:31;28.40;;;13.98;;
74799;SDS011;63326;45.088;7.658;2022-10-16T14:59:00;34.30;;;14.95;;
74799;SDS011;63326;45.088;7.658;2022-10-16T15:01:27;31.98;;;15.35;;
74799;SDS011;63326;45.088;7.658;2022-10-16T15:03:53;31.55;;;14.38;;
74799;SDS011;63326;45.088;7.658;2022-10-16T15:06:21;29.55;;;15.30;;
74799;SDS011;63326;45.088;7.658;2022-10-16T15:08:48;33.78;;;15.98;;
74799;SDS011;63326;45.088;7.658;2022-10-16T15:11:15;36.25;;;16.88;;
74799;SDS011;63326;45.088;7.658;2022-10-16T15:16:00;28.15;;;13.27;;
74799;SDS011;63326;45.088;7.658;2022-10-16T15:18:27;29.15;;;13.43;;
74799;SDS011;63326;45.088;7.658;2022-10-16T15:20:54;25.98;;;13.30;;
74799;SDS011;63326;45.088;7.658;2022-10-16T15:23:21;27.48;;;13.35;;
74799;SDS011;63326;45.088;7.658;2022-10-16T15:25:49;31.48;;;13.25;;
74799;SDS011;63326;45.088;7.658;2022-10-16T15:28:18;22.17;;;12.27;;
74799;SDS011;63326;45.088;7.658;2022-10-16T15:30:45;29.83;;;14.73;;
74799;SDS011;63326;45.088;7.658;2022-10-16T15:33:13;31.63;;;14.82;;
74799;SDS011;63326;45.088;7.658;2022-10-16T15:35:41;28.58;;;13.77;;
74799;SDS011;63326;45.088;7.658;2022-10-16T15:38:12;28.38;;;13.88;;
74799;SDS011;63326;45.088;7.658;2022-10-16T15:40:39;26.30;;;13.23;;
74799;SDS011;63326;45.088;7.658;2022-10-16T15:43:06;25.65;;;12.55;;
74799;SDS011;63326;45.088;7.658;2022-10-16T15:45:33;29.98;;;14.98;;
74799;SDS011;63326;45.088;7.658;2022-10-16T15:47:59;35.38;;;14.82;;
74799;SDS011;63326;45.088;7.658;2022-10-16T15:50:26;28.42;;;13.48;;
74799;SDS011;63326;45.088;7.658;2022-10-16T15:52:53;27.90;;;13.18;;
74799;SDS011;63326;45.088;7.658;2022-10-16T15:55:19;31.02;;;14.43;;
74799;SDS011;63326;45.088;7.658;2022-10-16T15:57:46;32.45;;;14.82;;
74799;SDS011;63326;45.088;7.658;2022-10-16T16:00:13;29.13;;;12.95;;
74799;SDS011;63326;45.088;7.658;2022-10-16T16:02:41;28.83;;;14.40;;
74799;SDS011;63326;45.088;7.658;2022-10-16T16:05:09;29.52;;;13.27;;
74799;SDS011;63326;45.088;7.658;2022-10-16T16:10:05;30.38;;;14.23;;
74799;SDS011;63326;45.088;7.658;2022-10-16T16:12:33;27.50;;;14.32;;
74799;SDS011;63326;45.088;7.658;2022-10-16T16:15:00;32.13;;;13.65;;
74799;SDS011;63326;45.088;7.658;2022-10-16T16:17:31;29.75;;;14.38;;
74799;SDS011;63326;45.088;7.658;2022-10-16T16:19:58;27.35;;;13.95;;
74799;SDS011;63326;45.088;7.658;2022-10-16T16:22:25;25.15;;;13.38;;
74799;SDS011;63326;45.088;7.658;2022-10-16T16:24:52;28.63;;;14.73;;
74799;SDS011;63326;45.088;7.658;2022-10-16T16:27:19;29.63;;;14.73;;
74799;SDS011;63326;45.088;7.658;2022-10-16T16:29:46;29.83;;;15.90;;
74799;SDS011;63326;45.088;7.658;2022-10-16T16:32:13;32.53;;;14.38;;
74799;SDS011;63326;45.088;7.658;2022-10-16T16:34:40;30.23;;;14.23;;
74799;SDS011;63326;45.088;7.658;2022-10-16T16:37:07;31.40;;;15.75;;
74799;SDS011;63326;45.088;7.658;2022-10-16T16:39:33;32.55;;;14.13;;
74799;SDS011;63326;45.088;7.658;2022-10-16T16:42:00;28.55;;;14.65;;
74799;SDS011;63326;45.088;7.658;2022-10-16T16:46:55;38.35;;;14.30;;
74799;SDS011;63326;45.088;7.658;2022-10-16T16:49:21;27.48;;;13.55;;
74799;SDS011;63326;45.088;7.658;2022-10-16T16:51:48;29.30;;;13.35;;
74799;SDS011;63326;45.088;7.658;2022-10-16T16:54:15;33.00;;;14.45;;
74799;SDS011;63326;45.088;7.658;2022-10-16T16:56:41;28.52;;;15.52;;
74799;SDS011;63326;45.088;7.658;2022-10-16T16:59:15;26.58;;;13.63;;
74799;SDS011;63326;45.088;7.658;2022-10-16T17:01:44;31.77;;;15.20;;
74799;SDS011;63326;45.088;7.658;2022-10-16T17:04:10;28.85;;;13.43;;
74799;SDS011;63326;45.088;7.658;2022-10-16T17:06:37;37.10;;;15.55;;
74799;SDS011;63326;45.088;7.658;2022-10-16T17:09:04;29.65;;;14.90;;
74799;SDS011;63326;45.088;7.658;2022-10-16T17:11:32;29.17;;;13.23;;
74799;SDS011;63326;45.088;7.658;2022-10-16T17:14:00;33.00;;;14.55;;
74799;SDS011;63326;45.088;7.658;2022-10-16T17:16:29;29.77;;;15.02;;
74799;SDS011;63326;45.088;7.658;2022-10-16T17:19:00;28.23;;;13.98;;
74799;SDS011;63326;45.088;7.658;2022-10-16T17:21:27;30.08;;;13.82;;
74799;SDS011;63326;45.088;7.658;2022-10-16T17:23:55;29.85;;;15.07;;
74799;SDS011;63326;45.088;7.658;2022-10-16T17:26:23;34.45;;;14.57;;
74799;SDS011;63326;45.088;7.658;2022-10-16T17:28:50;26.83;;;13.50;;
74799;SDS011;63326;45.088;7.658;2022-10-16T17:31:24;33.63;;;16.52;;
74799;SDS011;63326;45.088;7.658;2022-10-16T17:33:56;27.52;;;14.77;;
74799;SDS011;63326;45.088;7.658;2022-10-16T17:36:24;27.73;;;14.40;;
74799;SDS011;63326;45.088;7.658;2022-10-16T17:38:51;25.95;;;13.38;;
74799;SDS011;63326;45.088;7.658;2022-10-16T17:41:19;30.38;;;14.15;;
74799;SDS011;63326;45.088;7.658;2022-10-16T17:43:47;31.00;;;15.65;;
74799;SDS011;63326;45.088;7.658;2022-10-16T17:46:15;32.72;;;16.30;;
74799;SDS011;63326;45.088;7.658;2022-10-16T17:48:44;26.35;;;13.63;;
74799;SDS011;63326;45.088;7.658;2022-10-16T17:53:39;28.50;;;14.02;;
74799;SDS011;63326;45.088;7.658;2022-10-16T17:56:06;29.67;;;13.10;;
74799;SDS011;63326;45.088;7.658;2022-10-16T17:58:34;33.08;;;15.00;;
74799;SDS011;63326;45.088;7.658;2022-10-16T18:01:01;29.90;;;14.73;;
74799;SDS011;63326;45.088;7.658;2022-10-16T18:03:37;33.65;;;16.02;;
74799;SDS011;63326;45.088;7.658;2022-10-16T18:06:03;32.10;;;14.90;;
74799;SDS011;63326;45.088;7.658;2022-10-16T18:08:30;29.55;;;13.90;;
74799;SDS011;63326;45.088;7.658;2022-10-16T18:10:57;31.63;;;14.88;;
74799;SDS011;63326;45.088;7.658;2022-10-16T18:13:23;35.88;;;16.00;;
74799;SDS011;63326;45.088;7.658;2022-10-16T18:16:06;31.90;;;14.75;;
74799;SDS011;63326;45.088;7.658;2022-10-16T18:18:36;30.58;;;15.93;;
74799;SDS011;63326;45.088;7.658;2022-10-16T18:21:04;32.53;;;14.57;;
74799;SDS011;63326;45.088;7.658;2022-10-16T18:23:33;37.78;;;17.65;;
74799;SDS011;63326;45.088;7.658;2022-10-16T18:28:28;29.75;;;15.43;;
74799;SDS011;63326;45.088;7.658;2022-10-16T18:31:01;35.00;;;18.75;;
74799;SDS011;63326;45.088;7.658;2022-10-16T18:33:30;38.15;;;18.83;;
74799;SDS011;63326;45.088;7.658;2022-10-16T18:36:01;34.28;;;17.92;;
74799;SDS011;63326;45.088;7.658;2022-10-16T18:38:29;41.55;;;18.45;;
74799;SDS011;63326;45.088;7.658;2022-10-16T18:40:56;32.53;;;15.73;;
74799;SDS011;63326;45.088;7.658;2022-10-16T18:43:23;35.28;;;17.77;;
74799;SDS011;63326;45.088;7.658;2022-10-16T18:46:00;38.08;;;17.40;;
74799;SDS011;63326;45.088;7.658;2022-10-16T18:48:31;40.05;;;18.73;;
74799;SDS011;63326;45.088;7.658;2022-10-16T18:53:35;31.38;;;17.08;;
74799;SDS011;63326;45.088;7.658;2022-10-16T18:56:02;37.85;;;17.98;;
74799;SDS011;63326;45.088;7.658;2022-10-16T18:58:29;34.47;;;16.80;;
74799;SDS011;63326;45.088;7.658;2022-10-16T19:01:01;33.80;;;16.73;;
74799;SDS011;63326;45.088;7.658;2022-10-16T19:03:29;33.50;;;18.52;;
74799;SDS011;63326;45.088;7.658;2022-10-16T19:06:04;32.53;;;16.95;;
74799;SDS011;63326;45.088;7.658;2022-10-16T19:08:33;40.38;;;15.80;;
74799;SDS011;63326;45.088;7.658;2022-10-16T19:11:01;34.60;;;16.90;;
74799;SDS011;63326;45.088;7.658;2022-10-16T19:13:41;36.90;;;16.42;;
74799;SDS011;63326;45.088;7.658;2022-10-16T19:16:09;31.92;;;15.45;;
74799;SDS011;63326;45.088;7.658;2022-10-16T19:18:46;28.83;;;15.80;;
74799;SDS011;63326;45.088;7.658;2022-10-16T19:21:13;31.38;;;15.35;;
74799;SDS011;63326;45.088;7.658;2022-10-16T19:23:40;31.38;;;15.45;;
74799;SDS011;63326;45.088;7.658;2022-10-16T19:26:08;24.95;;;13.43;;
74799;SDS011;63326;45.088;7.658;2022-10-16T19:28:39;31.55;;;15.63;;
74799;SDS011;63326;45.088;7.658;2022-10-16T19:31:07;29.88;;;14.07;;
74799;SDS011;63326;45.088;7.658;2022-10-16T19:33:37;31.50;;;15.43;;
74799;SDS011;63326;45.088;7.658;2022-10-16T19:36:08;31.02;;;13.75;;
74799;SDS011;63326;45.088;7.658;2022-10-16T19:38:39;24.02;;;13.00;;
74799;SDS011;63326;45.088;7.658;2022-10-16T19:41:07;26.67;;;13.07;;
74799;SDS011;63326;45.088;7.658;2022-10-16T19:43:34;29.42;;;13.20;;
74799;SDS011;63326;45.088;7.658;2022-10-16T19:46:04;27.38;;;12.90;;
74799;SDS011;63326;45.088;7.658;2022-10-16T19:48:34;25.58;;;13.90;;
74799;SDS011;63326;45.088;7.658;2022-10-16T19:51:01;24.80;;;13.32;;
74799;SDS011;63326;45.088;7.658;2022-10-16T19:53:29;26.30;;;12.27;;
74799;SDS011;63326;45.088;7.658;2022-10-16T19:55:56;22.08;;;12.13;;
74799;SDS011;63326;45.088;7.658;2022-10-16T19:58:23;26.55;;;13.75;;
74799;SDS011;63326;45.088;7.658;2022-10-16T20:00:50;25.33;;;11.00;;
74799;SDS011;63326;45.088;7.658;2022-10-16T20:03:17;22.17;;;11.75;;
74799;SDS011;63326;45.088;7.658;2022-10-16T20:05:51;25.92;;;13.07;;
74799;SDS011;63326;45.088;7.658;2022-10-16T20:08:18;27.38;;;12.75;;
74799;SDS011;63326;45.088;7.658;2022-10-16T20:10:49;27.95;;;12.98;;
74799;SDS011;63326;45.088;7.658;2022-10-16T20:13:20;23.77;;;9.80;;
74799;SDS011;63326;45.088;7.658;2022-10-16T20:15:47;25.05;;;12.48;;
74799;SDS011;63326;45.088;7.658;2022-10-16T20:18:14;26.08;;;13.20;;
74799;SDS011;63326;45.088;7.658;2022-10-16T20:20:44;26.63;;;12.43;;
74799;SDS011;63326;45.088;7.658;2022-10-16T20:23:13;25.83;;;12.90;;
74799;SDS011;63326;45.088;7.658;2022-10-16T20:25:40;24.13;;;12.27;;
74799;SDS011;63326;45.088;7.658;2022-10-16T20:28:09;25.48;;;14.07;;
74799;SDS011;63326;45.088;7.658;2022-10-16T20:30:39;24.60;;;12.43;;
74799;SDS011;63326;45.088;7.658;2022-10-16T20:33:08;22.52;;;12.38;;
74799;SDS011;63326;45.088;7.658;2022-10-16T20:35:35;27.80;;;12.38;;
74799;SDS011;63326;45.088;7.658;2022-10-16T20:38:03;23.52;;;11.80;;
74799;SDS011;63326;45.088;7.658;2022-10-16T20:40:32;23.67;;;12.27;;
74799;SDS011;63326;45.088;7.658;2022-10-16T20:43:00;24.35;;;12.60;;
74799;SDS011;63326;45.088;7.658;2022-10-16T20:45:27;24.63;;;12.02;;
74799;SDS011;63326;45.088;7.658;2022-10-16T20:47:54;25.05;;;12.45;;
74799;SDS011;63326;45.088;7.658;2022-10-16T20:50:20;19.35;;;11.10;;
74799;SDS011;63326;45.088;7.658;2022-10-16T20:52:47;22.40;;;12.00;;
74799;SDS011;63326;45.088;7.658;2022-10-16T20:55:19;22.88;;;11.98;;
74799;SDS011;63326;45.088;7.658;2022-10-16T20:57:45;27.08;;;12.15;;
74799;SDS011;63326;45.088;7.658;2022-10-16T21:00:12;24.48;;;12.63;;
74799;SDS011;63326;45.088;7.658;2022-10-16T21:02:39;22.80;;;11.02;;
74799;SDS011;63326;45.088;7.658;2022-10-16T21:05:06;27.23;;;11.43;;
74799;SDS011;63326;45.088;7.658;2022-10-16T21:07:32;25.80;;;11.63;;
74799;SDS011;63326;45.088;7.658;2022-10-16T21:09:59;25.23;;;11.68;;
74799;SDS011;63326;45.088;7.658;2022-10-16T21:12:26;24.27;;;11.52;;
74799;SDS011;63326;45.088;7.658;2022-10-16T21:14:53;22.88;;;11.68;;
74799;SDS011;63326;45.088;7.658;2022-10-16T21:17:39;23.52;;;12.35;;
74799;SDS011;63326;45.088;7.658;2022-10-16T21:20:09;23.73;;;13.73;;
74799;SDS011;63326;45.088;7.658;2022-10-16T21:22:35;23.38;;;12.48;;
74799;SDS011;63326;45.088;7.658;2022-10-16T21:25:02;25.60;;;12.90;;
74799;SDS011;63326;45.088;7.658;2022-10-16T21:27:29;26.80;;;12.30;;
74799;SDS011;63326;45.088;7.658;2022-10-16T21:29:55;23.00;;;10.82;;
74799;SDS011;63326;45.088;7.658;2022-10-16T21:32:22;27.30;;;12.15;;
74799;SDS011;63326;45.088;7.658;2022-10-16T21:34:48;23.67;;;12.07;;
74799;SDS011;63326;45.088;7.658;2022-10-16T21:37:15;26.58;;;12.43;;
74799;SDS011;63326;45.088;7.658;2022-10-16T21:39:42;23.35;;;11.63;;
74799;SDS011;63326;45.088;7.658;2022-10-16T21:42:08;27.90;;;12.77;;
74799;SDS011;63326;45.088;7.658;2022-10-16T21:44:35;24.60;;;12.35;;
74799;SDS011;63326;45.088;7.658;2022-10-16T21:47:03;29.85;;;12.57;;
74799;SDS011;63326;45.088;7.658;2022-10-16T21:49:30;25.27;;;13.30;;
74799;SDS011;63326;45.088;7.658;2022-10-16T21:51:56;26.48;;;11.82;;
74799;SDS011;63326;45.088;7.658;2022-10-16T21:54:23;24.33;;;12.13;;
74799;SDS011;63326;45.088;7.658;2022-10-16T21:56:49;26.70;;;12.18;;
74799;SDS011;63326;45.088;7.658;2022-10-16T21:59:18;25.40;;;11.90;;
74799;SDS011;63326;45.088;7.658;2022-10-16T22:01:45;23.15;;;12.32;;
74799;SDS011;63326;45.088;7.658;2022-10-16T22:04:12;26.30;;;12.70;;
74799;SDS011;63326;45.088;7.658;2022-10-16T22:06:40;25.55;;;12.20;;
74799;SDS011;63326;45.088;7.658;2022-10-16T22:09:08;23.63;;;12.02;;
74799;SDS011;63326;45.088;7.658;2022-10-16T22:11:37;29.33;;;12.93;;
74799;SDS011;63326;45.088;7.658;2022-10-16T22:14:05;22.30;;;11.82;;
74799;SDS011;63326;45.088;7.658;2022-10-16T22:16:34;26.52;;;13.05;;
74799;SDS011;63326;45.088;7.658;2022-10-16T22:19:04;21.70;;;12.45;;
74799;SDS011;63326;45.088;7.658;2022-10-16T22:21:35;24.38;;;12.32;;
74799;SDS011;63326;45.088;7.658;2022-10-16T22:24:04;24.55;;;13.38;;
74799;SDS011;63326;45.088;7.658;2022-10-16T22:26:31;23.10;;;12.70;;
74799;SDS011;63326;45.088;7.658;2022-10-16T22:28:58;23.23;;;11.13;;
74799;SDS011;63326;45.088;7.658;2022-10-16T22:31:25;27.00;;;12.73;;
74799;SDS011;63326;45.088;7.658;2022-10-16T22:33:53;24.48;;;11.82;;
74799;SDS011;63326;45.088;7.658;2022-10-16T22:36:23;23.42;;;12.43;;
74799;SDS011;63326;45.088;7.658;2022-10-16T22:38:49;24.90;;;12.13;;
74799;SDS011;63326;45.088;7.658;2022-10-16T22:41:16;26.25;;;13.20;;
74799;SDS011;63326;45.088;7.658;2022-10-16T22:43:43;24.70;;;14.25;;
74799;SDS011;63326;45.088;7.658;2022-10-16T22:46:12;23.02;;;11.73;;
74799;SDS011;63326;45.088;7.658;2022-10-16T22:48:40;26.08;;;11.65;;
74799;SDS011;63326;45.088;7.658;2022-10-16T22:51:07;21.58;;;13.60;;
74799;SDS011;63326;45.088;7.658;2022-10-16T22:53:34;22.75;;;11.52;;
74799;SDS011;63326;45.088;7.658;2022-10-16T22:56:01;24.73;;;12.57;;
74799;SDS011;63326;45.088;7.658;2022-10-16T22:58:28;21.15;;;12.25;;
74799;SDS011;63326;45.088;7.658;2022-10-16T23:00:55;24.48;;;12.35;;
74799;SDS011;63326;45.088;7.658;2022-10-16T23:03:26;23.73;;;12.65;;
74799;SDS011;63326;45.088;7.658;2022-10-16T23:05:53;23.10;;;11.63;;
74799;SDS011;63326;45.088;7.658;2022-10-16T23:08:20;25.60;;;12.65;;
74799;SDS011;63326;45.088;7.658;2022-10-16T23:10:46;23.80;;;12.73;;
74799;SDS011;63326;45.088;7.658;2022-10-16T23:13:14;24.27;;;12.60;;
74799;SDS011;63326;45.088;7.658;2022-10-16T23:15:41;22.90;;;12.80;;
74799;SDS011;63326;45.088;7.658;2022-10-16T23:18:09;21.33;;;11.57;;
74799;SDS011;63326;45.088;7.658;2022-10-16T23:20:39;24.15;;;12.50;;
74799;SDS011;63326;45.088;7.658;2022-10-16T23:23:06;23.50;;;12.57;;
74799;SDS011;63326;45.088;7.658;2022-10-16T23:25:33;23.67;;;12.52;;
74799;SDS011;63326;45.088;7.658;2022-10-16T23:28:00;22.98;;;12.13;;
74799;SDS011;63326;45.088;7.658;2022-10-16T23:30:26;26.65;;;13.75;;
74799;SDS011;63326;45.088;7.658;2022-10-16T23:32:53;24.10;;;11.57;;
74799;SDS011;63326;45.088;7.658;2022-10-16T23:35:19;22.25;;;11.50;;
74799;SDS011;63326;45.088;7.658;2022-10-16T23:37:46;26.35;;;11.63;;
74799;SDS011;63326;45.088;7.658;2022-10-16T23:40:12;25.70;;;12.25;;
74799;SDS011;63326;45.088;7.658;2022-10-16T23:42:39;25.90;;;12.65;;
74799;SDS011;63326;45.088;7.658;2022-10-16T23:45:05;27.48;;;12.38;;
74799;SDS011;63326;45.088;7.658;2022-10-16T23:47:32;24.77;;;13.60;;
74799;SDS011;63326;45.088;7.658;2022-10-16T23:49:59;27.00;;;12.77;;
74799;SDS011;63326;45.088;7.658;2022-10-16T23:52:25;23.75;;;10.85;;
74799;SDS011;63326;45.088;7.658;2022-10-16T23:54:52;22.58;;;11.82;;
74799;SDS011;63326;45.088;7.658;2022-10-16T23:57:18;25.30;;;13.00;;
74799;SDS011;63326;45.088;7.658;2022-10-16T23:59:45;25.17;;;14.38;;
